Silver Millie — V7NP8 — position and weather

sailwx.info

Track history (hours):
 
Tides and Currents Weather Stations Pressure Air Temp Water Temp Dewpoint Dewpoint Depression Visibility Wind Speed Wind Dir Waves Ship Positions

Silver Millie

Last reported at 2017-Nov-14 22:17 UTC. Time now 2017-Nov-21 19:11 UTC.
Position N 27°20' W 115°16'.

Length 115 m; draft 5 m.

Type: Cargo ship. MMSI: 538002996.

Date/timePositionNaut miles runAvg speedWind from/ knotsBaromVisibWave heightAir tempDewpointWater temp
2017-Nov-14 22:17N 27°20' W 115°16'712.9
2017-Nov-14 21:44N 27°25' W 115°21'412.9
2017-Nov-14 21:27N 27°28' W 115°24'613.0
2017-Nov-14 20:58N 27°33' W 115°28'3813.0
2017-Nov-14 18:03N 28°04' W 115°53'113.3
2017-Nov-14 18:00N 28°05' W 115°53'713.7
2017-Nov-14 17:30N 28°11' W 115°57'713.8
2017-Nov-14 16:58N 28°18' W 115°59'813.3
2017-Nov-14 16:24N 28°25' W 116°02'613.2
2017-Nov-14 15:57N 28°30' W 116°05'613.2
2017-Nov-14 15:30N 28°36' W 116°07'713.2
2017-Nov-14 15:00N 28°42' W 116°09'2113.0
2017-Nov-14 13:23N 29°02' W 116°18'512.8
2017-Nov-14 13:00N 29°07' W 116°19'612.9
2017-Nov-14 12:30N 29°13' W 116°22'712.8
2017-Nov-14 11:56N 29°20' W 116°25'613.0
2017-Nov-14 11:30N 29°25' W 116°27'813.0
2017-Nov-14 10:53N 29°32' W 116°30'513.0
2017-Nov-14 10:30N 29°37' W 116°32'612.7
2017-Nov-14 10:00N 29°43' W 116°35'612.4
2017-Nov-14 09:30N 29°49' W 116°37'612.7
2017-Nov-14 09:00N 29°55' W 116°40'612.7
2017-Nov-14 08:30N 30°01' W 116°42'612.8
2017-Nov-14 08:00N 30°07' W 116°45'612.5
2017-Nov-14 07:31N 30°13' W 116°47'612.6
2017-Nov-14 07:00N 30°19' W 116°50'612.7
2017-Nov-14 06:30N 30°25' W 116°52'812.8
2017-Nov-14 05:52N 30°32' W 116°55'612.8
2017-Nov-14 05:26N 30°38' W 116°57'713.0
2017-Nov-14 04:55N 30°44' W 117°00'512.9
2017-Nov-14 04:29N 30°49' W 117°02'1412.8
2017-Nov-14 03:25N 31°02' W 117°07'512.8
2017-Nov-14 03:00N 31°07' W 117°10'713.1
2017-Nov-14 02:30N 31°13' W 117°12'713.3
2017-Nov-14 02:00N 31°19' W 117°15'713.2
2017-Nov-14 01:30N 31°26' W 117°18'2213.6
2017-Nov-13 23:55N 31°46' W 117°26'613.6
2017-Nov-13 23:30N 31°51' W 117°29'713.1
2017-Nov-13 23:00N 31°57' W 117°31'713.4
2017-Nov-13 22:29N 32°04' W 117°34'613.2
2017-Nov-13 22:00N 32°10' W 117°37'  
2017-Nov-11 14:00N 33°46' W 118°13'6 2.8
2017-Nov-11 12:03N 33°42' W 118°09'0 1.1
2017-Nov-11 12:00N 33°42' W 118°09'0 0.0
2017-Nov-11 06:53N 33°42' W 118°09'0 0.1
2017-Nov-11 06:29N 33°42' W 118°09'0 0.0
2017-Nov-11 05:50N 33°42' W 118°09'0 0.0
2017-Nov-11 05:20N 33°42' W 118°09'0 0.0
2017-Nov-11 04:59N 33°42' W 118°09'3 0.9
2017-Nov-11 01:01N 33°38' W 118°09'010.4
2017-Nov-11 01:00N 33°38' W 118°09'510.2
2017-Nov-11 00:29N 33°33' W 118°09'1510.4
2017-Nov-10 23:03N 33°19' W 118°03'111.2
2017-Nov-10 22:59N 33°18' W 118°02'510.9
2017-Nov-10 22:30N 33°13' W 118°02'511.0
2017-Nov-10 22:00N 33°08' W 118°01'611.2
2017-Nov-10 21:30N 33°02' W 118°01'612.8
2017-Nov-10 21:00N 32°56' W 117°60'713.1
2017-Nov-10 20:30N 32°49' W 118°01'713.7
2017-Nov-10 19:57N 32°43' W 118°05'12611.1
2017-Nov-10 08:39N 32°45' W 120°34'813.7
2017-Nov-10 08:03N 32°51' W 120°41'313.5
2017-Nov-10 07:51N 32°53' W 120°44'2713.7
2017-Nov-10 05:53N 33°11' W 121°07'514.1
2017-Nov-10 05:30N 33°15' W 121°11'714.1
2017-Nov-10 05:00N 33°20' W 121°17'813.8
2017-Nov-10 04:25N 33°27' W 121°23'613.9
2017-Nov-10 03:57N 33°32' W 121°26'613.9
2017-Nov-10 03:30N 33°38' W 121°30'713.3
2017-Nov-10 03:00N 33°44' W 121°34'713.2
2017-Nov-10 02:30N 33°49' W 121°38'613.2
2017-Nov-10 02:00N 33°55' W 121°42'713.3
2017-Nov-10 01:30N 34°01' W 121°46'713.3
2017-Nov-10 01:00N 34°07' W 121°49'613.0
2017-Nov-10 00:30N 34°12' W 121°53'713.0
2017-Nov-10 00:00N 34°18' W 121°57'713.1
2017-Nov-09 23:29N 34°24' W 122°01'612.9
2017-Nov-09 23:00N 34°30' W 122°05'713.4
2017-Nov-09 22:30N 34°35' W 122°09'713.3
2017-Nov-09 22:00N 34°41' W 122°13'713.1
2017-Nov-09 21:30N 34°47' W 122°16'16912.1
2017-Nov-09 07:32N 37°30' W 123°12'111.5
2017-Nov-09 07:27N 37°30' W 123°11'511.5
2017-Nov-09 07:00N 37°33' W 123°06'611.1
2017-Nov-09 06:30N 37°36' W 122°60'611.3
2017-Nov-09 06:00N 37°40' W 122°54'611.5
2017-Nov-09 05:30N 37°43' W 122°48'510.7
2017-Nov-09 05:00N 37°46' W 122°42'5 9.1
2017-Nov-09 04:30N 37°46' W 122°36'611.5
2017-Nov-09 04:00N 37°49' W 122°30'5 9.7
2017-Nov-09 03:30N 37°50' W 122°24'4 8.1
2017-Nov-09 03:00N 37°46' W 122°21'0 0.2
2017-Nov-09 02:30N 37°46' W 122°21'0 0.1
2017-Nov-09 02:00N 37°46' W 122°21'0 0.0
2017-Nov-09 01:30N 37°46' W 122°21'0 0.1
2017-Nov-09 01:00N 37°46' W 122°21'0 0.1
2017-Nov-09 00:30N 37°46' W 122°21'0 0.1
2017-Nov-09 00:00N 37°46' W 122°21'0 0.1
2017-Nov-08 23:30N 37°46' W 122°21'0 0.0
2017-Nov-08 23:00N 37°46' W 122°21'0 0.3
2017-Nov-08 22:30N 37°46' W 122°21'0 0.1
2017-Nov-08 22:00N 37°46' W 122°21'0 0.0
2017-Nov-08 21:30N 37°46' W 122°21'0 0.0
2017-Nov-08 21:00N 37°46' W 122°21'0 0.0
2017-Nov-08 20:30N 37°46' W 122°21'0 0.1
2017-Nov-08 20:00N 37°46' W 122°21'0 0.1
2017-Nov-08 19:30N 37°46' W 122°21'0 0.0
2017-Nov-08 19:00N 37°46' W 122°21'0 0.0
2017-Nov-08 18:30N 37°46' W 122°21'0 0.2
2017-Nov-08 18:00N 37°46' W 122°21'0 0.2
2017-Nov-08 17:30N 37°46' W 122°21'0 0.1
2017-Nov-08 17:00N 37°46' W 122°21'0 0.0
2017-Nov-08 16:30N 37°46' W 122°21'0 0.6
2017-Nov-08 16:01N 37°46' W 122°21'4 8.8
2017-Nov-08 15:31N 37°50' W 122°24'611.1
2017-Nov-08 15:00N 37°55' W 122°27'611.1
2017-Nov-08 14:31N 38°01' W 122°24'510.4
2017-Nov-08 14:00N 38°03' W 122°19'4 8.9
2017-Nov-08 13:30N 38°04' W 122°13'4 7.7
2017-Nov-08 13:00N 38°02' W 122°09'3 5.6
2017-Nov-08 12:30N 38°03' W 122°05'0 0.0
2017-Nov-07 08:45N 38°03' W 122°05'0 0.7
2017-Nov-07 08:29N 38°03' W 122°06'1 2.9
2017-Nov-07 08:00N 38°02' W 122°07'5 8.3
2017-Nov-07 07:26N 38°04' W 122°13'511.9
2017-Nov-07 07:00N 38°03' W 122°19'612.0
2017-Nov-07 06:30N 37°59' W 122°25'612.4
2017-Nov-07 06:00N 37°53' W 122°26'611.9
2017-Nov-07 05:30N 37°48' W 122°22'5 9.3
2017-Nov-07 05:00N 37°44' W 122°20'0 0.2
2017-Nov-07 04:25N 37°44' W 122°20'0 0.2
2017-Nov-07 03:55N 37°44' W 122°20'0 0.0
2017-Nov-07 03:25N 37°44' W 122°20'0 0.0
2017-Nov-07 02:55N 37°44' W 122°20'0 0.0
2017-Nov-07 02:25N 37°44' W 122°20'0 0.0
2017-Nov-07 01:55N 37°44' W 122°20'0 0.0
2017-Nov-07 01:25N 37°44' W 122°20'0 0.0
2017-Nov-07 00:55N 37°44' W 122°20'0 0.0
2017-Nov-07 00:25N 37°44' W 122°20'0 0.0
2017-Nov-06 23:55N 37°44' W 122°20'0 0.0
2017-Nov-06 23:25N 37°44' W 122°20'0 0.0
2017-Nov-06 22:55N 37°44' W 122°20'0 0.0
2017-Nov-06 22:25N 37°44' W 122°20'0 0.3
2017-Nov-06 21:55N 37°44' W 122°20'0 0.1
2017-Nov-06 21:25N 37°44' W 122°20'0 0.1
2017-Nov-06 20:55N 37°44' W 122°20'0 0.0
2017-Nov-06 20:25N 37°44' W 122°20'148 6.0
2017-Nov-05 19:34N 36°08' W 124°42'3 9.6
2017-Nov-05 19:14N 36°06' W 124°45'  
Track history (hours):
 
Tides and Currents Weather Stations Pressure Air Temp Water Temp Dewpoint Dewpoint Depression Visibility Wind Speed Wind Dir Waves Ship Positions

Silver Millie

Last reported at 2017-Nov-14 22:17 UTC. Time now 2017-Nov-21 19:11 UTC.
Position N 27°20' W 115°16'.

Length 115 m; draft 5 m.

Type: Cargo ship. MMSI: 538002996.

Date/timePositionNaut miles runAvg speedWind from/ knotsBaromVisibWave heightAir tempDewpointWater temp
2017-Nov-14 22:17N 27°20' W 115°16'712.9
2017-Nov-14 21:44N 27°25' W 115°21'412.9
2017-Nov-14 21:27N 27°28' W 115°24'613.0
2017-Nov-14 20:58N 27°33' W 115°28'3813.0
2017-Nov-14 18:03N 28°04' W 115°53'113.3
2017-Nov-14 18:00N 28°05' W 115°53'713.7
2017-Nov-14 17:30N 28°11' W 115°57'713.8
2017-Nov-14 16:58N 28°18' W 115°59'813.3
2017-Nov-14 16:24N 28°25' W 116°02'613.2
2017-Nov-14 15:57N 28°30' W 116°05'613.2
2017-Nov-14 15:30N 28°36' W 116°07'713.2
2017-Nov-14 15:00N 28°42' W 116°09'2113.0
2017-Nov-14 13:23N 29°02' W 116°18'512.8
2017-Nov-14 13:00N 29°07' W 116°19'612.9
2017-Nov-14 12:30N 29°13' W 116°22'712.8
2017-Nov-14 11:56N 29°20' W 116°25'613.0
2017-Nov-14 11:30N 29°25' W 116°27'813.0
2017-Nov-14 10:53N 29°32' W 116°30'513.0
2017-Nov-14 10:30N 29°37' W 116°32'612.7
2017-Nov-14 10:00N 29°43' W 116°35'612.4
2017-Nov-14 09:30N 29°49' W 116°37'612.7
2017-Nov-14 09:00N 29°55' W 116°40'612.7
2017-Nov-14 08:30N 30°01' W 116°42'612.8
2017-Nov-14 08:00N 30°07' W 116°45'612.5
2017-Nov-14 07:31N 30°13' W 116°47'612.6
2017-Nov-14 07:00N 30°19' W 116°50'612.7
2017-Nov-14 06:30N 30°25' W 116°52'812.8
2017-Nov-14 05:52N 30°32' W 116°55'612.8
2017-Nov-14 05:26N 30°38' W 116°57'713.0
2017-Nov-14 04:55N 30°44' W 117°00'512.9
2017-Nov-14 04:29N 30°49' W 117°02'1412.8
2017-Nov-14 03:25N 31°02' W 117°07'512.8
2017-Nov-14 03:00N 31°07' W 117°10'713.1
2017-Nov-14 02:30N 31°13' W 117°12'713.3
2017-Nov-14 02:00N 31°19' W 117°15'713.2
2017-Nov-14 01:30N 31°26' W 117°18'2213.6
2017-Nov-13 23:55N 31°46' W 117°26'613.6
2017-Nov-13 23:30N 31°51' W 117°29'713.1
2017-Nov-13 23:00N 31°57' W 117°31'713.4
2017-Nov-13 22:29N 32°04' W 117°34'613.2
2017-Nov-13 22:00N 32°10' W 117°37'  
2017-Nov-11 14:00N 33°46' W 118°13'6 2.8
2017-Nov-11 12:03N 33°42' W 118°09'0 1.1
2017-Nov-11 12:00N 33°42' W 118°09'0 0.0
2017-Nov-11 06:53N 33°42' W 118°09'0 0.1
2017-Nov-11 06:29N 33°42' W 118°09'0 0.0
2017-Nov-11 05:50N 33°42' W 118°09'0 0.0
2017-Nov-11 05:20N 33°42' W 118°09'0 0.0
2017-Nov-11 04:59N 33°42' W 118°09'3 0.9
2017-Nov-11 01:01N 33°38' W 118°09'010.4
2017-Nov-11 01:00N 33°38' W 118°09'510.2
2017-Nov-11 00:29N 33°33' W 118°09'1510.4
2017-Nov-10 23:03N 33°19' W 118°03'111.2
2017-Nov-10 22:59N 33°18' W 118°02'510.9
2017-Nov-10 22:30N 33°13' W 118°02'511.0
2017-Nov-10 22:00N 33°08' W 118°01'611.2
2017-Nov-10 21:30N 33°02' W 118°01'612.8
2017-Nov-10 21:00N 32°56' W 117°60'713.1
2017-Nov-10 20:30N 32°49' W 118°01'713.7
2017-Nov-10 19:57N 32°43' W 118°05'12611.1
2017-Nov-10 08:39N 32°45' W 120°34'813.7
2017-Nov-10 08:03N 32°51' W 120°41'313.5
2017-Nov-10 07:51N 32°53' W 120°44'2713.7
2017-Nov-10 05:53N 33°11' W 121°07'514.1
2017-Nov-10 05:30N 33°15' W 121°11'714.1
2017-Nov-10 05:00N 33°20' W 121°17'813.8
2017-Nov-10 04:25N 33°27' W 121°23'613.9
2017-Nov-10 03:57N 33°32' W 121°26'613.9
2017-Nov-10 03:30N 33°38' W 121°30'713.3
2017-Nov-10 03:00N 33°44' W 121°34'713.2
2017-Nov-10 02:30N 33°49' W 121°38'613.2
2017-Nov-10 02:00N 33°55' W 121°42'713.3
2017-Nov-10 01:30N 34°01' W 121°46'713.3
2017-Nov-10 01:00N 34°07' W 121°49'613.0
2017-Nov-10 00:30N 34°12' W 121°53'713.0
2017-Nov-10 00:00N 34°18' W 121°57'713.1
2017-Nov-09 23:29N 34°24' W 122°01'612.9
2017-Nov-09 23:00N 34°30' W 122°05'713.4
2017-Nov-09 22:30N 34°35' W 122°09'713.3
2017-Nov-09 22:00N 34°41' W 122°13'713.1
2017-Nov-09 21:30N 34°47' W 122°16'16912.1
2017-Nov-09 07:32N 37°30' W 123°12'111.5
2017-Nov-09 07:27N 37°30' W 123°11'511.5
2017-Nov-09 07:00N 37°33' W 123°06'611.1
2017-Nov-09 06:30N 37°36' W 122°60'611.3
2017-Nov-09 06:00N 37°40' W 122°54'611.5
2017-Nov-09 05:30N 37°43' W 122°48'510.7
2017-Nov-09 05:00N 37°46' W 122°42'5 9.1
2017-Nov-09 04:30N 37°46' W 122°36'611.5
2017-Nov-09 04:00N 37°49' W 122°30'5 9.7
2017-Nov-09 03:30N 37°50' W 122°24'4 8.1
2017-Nov-09 03:00N 37°46' W 122°21'0 0.2
2017-Nov-09 02:30N 37°46' W 122°21'0 0.1
2017-Nov-09 02:00N 37°46' W 122°21'0 0.0
2017-Nov-09 01:30N 37°46' W 122°21'0 0.1
2017-Nov-09 01:00N 37°46' W 122°21'0 0.1
2017-Nov-09 00:30N 37°46' W 122°21'0 0.1
2017-Nov-09 00:00N 37°46' W 122°21'0 0.1
2017-Nov-08 23:30N 37°46' W 122°21'0 0.0
2017-Nov-08 23:00N 37°46' W 122°21'0 0.3
2017-Nov-08 22:30N 37°46' W 122°21'0 0.1
2017-Nov-08 22:00N 37°46' W 122°21'0 0.0
2017-Nov-08 21:30N 37°46' W 122°21'0 0.0
2017-Nov-08 21:00N 37°46' W 122°21'0 0.0
2017-Nov-08 20:30N 37°46' W 122°21'0 0.1
2017-Nov-08 20:00N 37°46' W 122°21'0 0.1
2017-Nov-08 19:30N 37°46' W 122°21'0 0.0
2017-Nov-08 19:00N 37°46' W 122°21'0 0.0
2017-Nov-08 18:30N 37°46' W 122°21'0 0.2
2017-Nov-08 18:00N 37°46' W 122°21'0 0.2
2017-Nov-08 17:30N 37°46' W 122°21'0 0.1
2017-Nov-08 17:00N 37°46' W 122°21'0 0.0
2017-Nov-08 16:30N 37°46' W 122°21'0 0.6
2017-Nov-08 16:01N 37°46' W 122°21'4 8.8
2017-Nov-08 15:31N 37°50' W 122°24'611.1
2017-Nov-08 15:00N 37°55' W 122°27'611.1
2017-Nov-08 14:31N 38°01' W 122°24'510.4
2017-Nov-08 14:00N 38°03' W 122°19'4 8.9
2017-Nov-08 13:30N 38°04' W 122°13'4 7.7
2017-Nov-08 13:00N 38°02' W 122°09'3 5.6
2017-Nov-08 12:30N 38°03' W 122°05'0 0.0
2017-Nov-07 08:45N 38°03' W 122°05'0 0.7
2017-Nov-07 08:29N 38°03' W 122°06'1 2.9
2017-Nov-07 08:00N 38°02' W 122°07'5 8.3
2017-Nov-07 07:26N 38°04' W 122°13'511.9
2017-Nov-07 07:00N 38°03' W 122°19'612.0
2017-Nov-07 06:30N 37°59' W 122°25'612.4
2017-Nov-07 06:00N 37°53' W 122°26'611.9
2017-Nov-07 05:30N 37°48' W 122°22'5 9.3
2017-Nov-07 05:00N 37°44' W 122°20'0 0.2
2017-Nov-07 04:25N 37°44' W 122°20'0 0.2
2017-Nov-07 03:55N 37°44' W 122°20'0 0.0
2017-Nov-07 03:25N 37°44' W 122°20'0 0.0
2017-Nov-07 02:55N 37°44' W 122°20'0 0.0
2017-Nov-07 02:25N 37°44' W 122°20'0 0.0
2017-Nov-07 01:55N 37°44' W 122°20'0 0.0
2017-Nov-07 01:25N 37°44' W 122°20'0 0.0
2017-Nov-07 00:55N 37°44' W 122°20'0 0.0
2017-Nov-07 00:25N 37°44' W 122°20'0 0.0
2017-Nov-06 23:55N 37°44' W 122°20'0 0.0
2017-Nov-06 23:25N 37°44' W 122°20'0 0.0
2017-Nov-06 22:55N 37°44' W 122°20'0 0.0
2017-Nov-06 22:25N 37°44' W 122°20'0 0.3
2017-Nov-06 21:55N 37°44' W 122°20'0 0.1
2017-Nov-06 21:25N 37°44' W 122°20'0 0.1
2017-Nov-06 20:55N 37°44' W 122°20'0 0.0
2017-Nov-06 20:25N 37°44' W 122°20'148 6.0
2017-Nov-05 19:34N 36°08' W 124°42'3 9.6
2017-Nov-05 19:14N 36°06' W 124°45'  

Dump ship's entire track history